DW8882 Weather Reports


Display with metric or nautical units.
time (UTC)temp
F
wind
direction
speed
MPH
gust
MPH
rain 1hr
in
rain 24hr
in
rain mn
in
humidity
%
barometer
mb
20220116194146 62 0.0 0.0 0.00 0.44 0.44 86 1006.1
20220116193646 62 0.0 0.0 0.00 0.44 0.44 86 1006.3
20220116193145 62 0.0 0.0 0.00 0.44 0.44 87 1006.3
20220116192646 62 0.0 0.0 0.00 0.44 0.44 87 1006.3
20220116192146 62 0.0 0.0 0.00 0.44 0.44 87 1006.2
20220116191646 62 0.0 0.0 0.00 0.44 0.44 88 1006.1
20220116191145 62 0.0 0.0 0.00 0.44 0.44 89 1006.2
20220116190646 62 0.0 0.0 0.00 0.44 0.44 90 1006.2
20220116190147 62 0.0 0.0 0.00 0.44 0.44 90 1006.2
20220116185642 63 0.0 0.0 0.00 0.44 0.44 90 1006.0
20220116185142 63 0.0 0.0 0.00 0.44 0.44 90 1006.0
20220116184642 63 0.0 0.0 0.01 0.44 0.44 91 1005.9
20220116184141 63 0.0 0.0 0.01 0.44 0.44 91 1006.1
20220116183642 63 0.0 0.0 0.01 0.44 0.44 92 1006.0
20220116183141 63 0.0 0.0 0.01 0.44 0.44 93 1006.2
20220116182641 63 0.0 0.0 0.01 0.44 0.44 94 1006.2
20220116182142 62 0.0 0.0 0.01 0.44 0.44 94 1006.2
20220116181641 62 0.0 0.0 0.01 0.44 0.44 94 1006.2
20220116181138 62 0.0 0.0 0.01 0.44 0.44 94 1006.3
20220116180638 62 0.0 0.0 0.01 0.44 0.44 94 1006.4
20220116180137 62 0.0 0.0 0.01 0.44 0.44 94 1006.6
20220116175638 62 0.0 0.0 0.01 0.44 0.44 93 1006.4
20220116175136 62 0.0 0.0 0.01 0.44 0.44 93 1006.5
20220116174637 62 0.0 0.0 0.00 0.43 0.43 93 1006.7
20220116174135 62 0.0 0.0 0.00 0.43 0.43 93 1006.8
20220116173637 62 0.0 0.0 0.00 0.43 0.43 93 1007.0
20220116173135 62 0.0 0.0 0.00 0.43 0.43 93 1007.0
20220116172635 62 0.0 0.0 0.01 0.43 0.43 93 1007.2
20220116172135 62 0.0 0.0 0.01 0.43 0.43 93 1007.2
20220116171636 62 0.0 0.0 0.01 0.43 0.43 93 1007.3
20220116171136 62 0.0 0.0 0.01 0.43 0.43 93 1007.4
20220116170636 62 0.0 0.0 0.02 0.43 0.43 93 1007.5
20220116170134 63 0.0 0.0 0.02 0.43 0.43 94 1007.6
20220116165631 63 0.0 0.0 0.03 0.43 0.43 94 1007.5
20220116165131 63 0.0 0.0 0.05 0.43 0.43 94 1007.5
20220116164631 63 0.0 0.0 0.06 0.43 0.43 94 1007.5
20220116164131 63 0.0 0.0 0.08 0.43 0.43 94 1007.6
20220116163631 63 0.0 0.0 0.23 0.43 0.43 94 1007.9
20220116163131 63 0.0 0.0 0.28 0.43 0.43 94 1008.1
20220116162632 63 0.0 0.0 0.28 0.42 0.42 94 1008.1
20220116162133 63 0.0 0.0 0.29 0.42 0.42 93 1008.3
20220116161630 63 0.0 0.0 0.29 0.42 0.42 93 1008.4
20220116161130 63 0.0 0.0 0.30 0.42 0.42 93 1008.3
20220116160629 63 0.0 0.0 0.31 0.41 0.41 93 1008.2
20220116160129 63 0.0 0.0 0.32 0.41 0.41 92 1008.3
20220116155629 64 0.0 0.0 0.33 0.40 0.40 91 1008.1
20220116155129 65 0.0 0.0 0.32 0.38 0.38 90 1008.3
20220116154629 67 0.0 0.0 0.32 0.37 0.37 91 1008.3
20220116154129 67 0.0 0.0 0.31 0.35 0.35 92 1007.9
20220116153629 68 0.0 0.0 0.16 0.20 0.20 91 1007.9
20220116153129 68 0.0 0.0 0.12 0.15 0.15 91 1007.5
20220116152629 68 0.0 0.0 0.12 0.14 0.14 91 1006.6
20220116152129 68 0.0 0.0 0.11 0.13 0.13 91 1006.3
20220116151629 68 0.0 0.0 0.12 0.13 0.13 91 1006.6
20220116151129 68 0.0 0.0 0.11 0.12 0.12 91 1006.6
20220116150630 68 0.0 0.0 0.09 0.10 0.10 90 1006.7
20220116150128 68 0.0 0.0 0.08 0.09 0.09 90 1007.0
20220116145630 68 0.0 0.0 0.06 0.07 0.07 90 1006.9
20220116145129 68 0.0 0.0 0.05 0.06 0.06 89 1006.9
20220116144630 68 0.0 0.0 0.04 0.05 0.05 89 1007.1
20220116144129 68 0.0 0.0 0.03 0.04 0.04 89 1007.2
20220116143629 68 0.0 0.0 0.04 0.04 0.04 88 1007.0
20220116143129 68 0.0 0.0 0.03 0.03 0.03 88 1006.9
20220116142630 68 0.0 0.0 0.02 0.02 0.02 88 1006.8
20220116142129 68 0.0 0.0 0.02 0.02 0.02 87 1006.9
20220116141629 69 0.0 0.0 0.01 0.01 0.01 86 1006.8
20220116141129 69 0.0 0.0 0.01 0.01 0.01 86 1007.1
20220116140629 69 0.0 0.0 0.01 0.01 0.01 86 1007.0
20220116140128 68 0.0 0.0 0.01 0.01 0.01 86 1006.9
20220116135629 68 0.0 0.0 0.01 0.01 0.01 86 1007.0
20220116135130 68 0.0 0.0 0.01 0.01 0.01 86 1007.0
20220116134629 68 0.0 0.0 0.01 0.01 0.01 86 1006.9
20220116134129 68 0.0 0.0 0.01 0.01 0.01 85 1006.8
20220116133630 69 0.0 0.0 0.00 0.00 0.00 84 1006.9
20220116133129 69 0.0 0.0 0.00 0.00 0.00 83 1007.0
20220116132629 69 0.0 0.0 0.00 0.00 0.00 82 1007.2
20220116132129 69 0.0 0.0 0.00 0.00 0.00 82 1006.9
20220116131629 69 0.0 0.0 0.00 0.00 0.00 82 1006.8
20220116131130 69 0.0 0.0 0.00 0.00 0.00 82 1006.8
20220116130629 69 0.0 0.0 0.00 0.00 0.00 82 1007.0
20220116130129 69 0.0 0.0 0.00 0.00 0.00 82 1007.0
20220116125630 69 0.0 0.0 0.00 0.00 0.00 81 1007.1
20220116125129 70 0.0 0.0 0.00 0.00 0.00 80 1007.1
20220116124630 70 0.0 0.0 0.00 0.00 0.00 80 1007.2
20220116124129 70 0.0 0.0 0.00 0.00 0.00 80 1006.9
20220116123629 69 0.0 0.0 0.00 0.00 0.00 80 1007.0
20220116123129 69 0.0 0.0 0.00 0.00 0.00 80 1006.9
20220116122629 69 0.0 0.0 0.00 0.00 0.00 80 1007.0
20220116122128 69 0.0 0.0 0.00 0.00 0.00 80 1007.0
20220116121629 69 0.0 0.0 0.00 0.00 0.00 81 1007.2
20220116121129 69 0.0 0.0 0.00 0.00 0.00 81 1007.3
20220116120629 69 0.0 0.0 0.00 0.00 0.00 81 1007.2
20220116120129 69 0.0 0.0 0.00 0.00 0.00 81 1007.5
20220116115629 69 0.0 0.0 0.00 0.00 0.00 82 1007.6
20220116115129 68 0.0 0.0 0.00 0.00 0.00 82 1007.7
20220116114630 68 0.0 0.0 0.00 0.00 0.00 82 1007.4
20220116114129 68 0.0 0.0 0.00 0.00 0.00 82 1007.4
20220116113629 68 0.0 0.0 0.00 0.00 0.00 83 1007.6
20220116113129 67 0.0 0.0 0.00 0.00 0.00 83 1007.6
20220116112629 67 0.0 0.0 0.00 0.00 0.00 83 1007.8
20220116112128 67 0.0 0.0 0.00 0.00 0.00 83 1007.8
20220116111629 67 0.0 0.0 0.00 0.00 0.00 84 1007.9
20220116111129 67 0.0 0.0 0.00 0.00 0.00 83 1007.8
20220116110629 67 0.0 0.0 0.00 0.00 0.00 83 1007.8
20220116110128 67 0.0 0.0 0.00 0.00 0.00 83 1008.0
20220116105629 67 0.0 0.0 0.00 0.00 0.00 83 1008.2
20220116105128 67 0.0 0.0 0.00 0.00 0.00 83 1008.2
20220116104630 67 0.0 0.0 0.00 0.00 0.00 83 1008.6
20220116104129 67 0.0 0.0 0.00 0.00 0.00 83 1009.0
20220116103629 67 0.0 0.0 0.00 0.00 0.00 83 1008.7
20220116103129 67 0.0 0.0 0.00 0.00 0.00 83 1008.6
20220116102628 66 0.0 0.0 0.00 0.00 0.00 83 1008.7
20220116102128 66 0.0 0.0 0.00 0.00 0.00 83 1008.7
20220116101630 66 0.0 0.0 0.00 0.00 0.00 84 1008.7
20220116101129 66 0.0 0.0 0.00 0.00 0.00 84 1008.8
20220116100629 66 0.0 0.0 0.00 0.00 0.00 84 1008.7
20220116100129 66 0.0 0.0 0.00 0.00 0.00 83 1008.9
20220116095629 66 0.0 0.0 0.00 0.00 0.00 83 1008.8
20220116095129 66 0.0 0.0 0.00 0.00 0.00 82 1008.8
20220116094629 66 0.0 0.0 0.00 0.00 0.00 81 1008.7
20220116094129 66 0.0 0.0 0.00 0.00 0.00 81 1008.6
20220116093630 65 0.0 0.0 0.00 0.00 0.00 81 1008.8
20220116093129 65 0.0 0.0 0.00 0.00 0.00 81 1008.8
20220116092629 65 0.0 0.0 0.00 0.00 0.00 81 1008.9
20220116092128 65 0.0 0.0 0.00 0.00 0.00 81 1008.9
20220116091629 65 0.0 0.0 0.00 0.00 0.00 80 1009.1
20220116091129 64 0.0 0.0 0.00 0.00 0.00 80 1009.1
20220116090629 64 0.0 0.0 0.00 0.00 0.00 80 1009.6
20220116090128 64 0.0 0.0 0.00 0.00 0.00 80 1009.4
20220116085629 64 0.0 0.0 0.00 0.00 0.00 79 1009.4
20220116085129 63 0.0 0.0 0.00 0.00 0.00 78 1009.6
20220116084629 63 0.0 0.0 0.00 0.00 0.00 78 1009.6
20220116084129 63 0.0 0.0 0.00 0.00 0.00 78 1009.8
20220116083629 63 0.0 0.0 0.00 0.00 0.00 77 1010.0
20220116083129 63 0.0 0.0 0.00 0.00 0.00 77 1010.0
20220116082628 63 0.0 0.0 0.00 0.00 0.00 76 1010.1
20220116082129 63 0.0 0.0 0.00 0.00 0.00 76 1010.3
20220116081629 63 0.0 0.0 0.00 0.00 0.00 76 1010.4
20220116081129 63 0.0 0.0 0.00 0.00 0.00 76 1010.5
20220116080629 63 0.0 0.0 0.00 0.00 0.00 76 1010.6
20220116080129 63 0.0 0.0 0.00 0.00 0.00 75 1010.7
20220116075629 63 0.0 0.0 0.00 0.00 0.00 75 1010.6
20220116075129 63 0.0 0.0 0.00 0.00 0.00 74 1010.6
20220116074629 63 0.0 0.0 0.00 0.00 0.00 74 1010.9
20220116074130 63 0.0 0.0 0.00 0.00 0.00 74 1010.9
20220116073629 63 0.0 0.0 0.00 0.00 0.00 74 1011.0
20220116073129 63 0.0 0.0 0.00 0.00 0.00 74 1011.1
20220116072628 63 0.0 0.0 0.00 0.00 0.00 74 1011.2
20220116072129 63 0.0 0.0 0.00 0.00 0.00 74 1011.4
20220116071629 63 0.0 0.0 0.00 0.00 0.00 74 1011.4
20220116071129 63 0.0 0.0 0.00 0.00 0.00 75 1011.5
20220116070629 63 0.0 0.0 0.00 0.00 0.00 75 1011.6
20220116070129 62 0.0 0.0 0.00 0.00 0.00 74 1011.5
20220116065628 62 0.0 0.0 0.00 0.00 0.00 75 1011.5
20220116065129 62 0.0 0.0 0.00 0.00 0.00 74 1011.3
20220116064630 62 0.0 0.0 0.00 0.00 0.00 74 1011.5
20220116064129 62 0.0 0.0 0.00 0.00 0.00 75 1011.4
20220116063629 62 0.0 0.0 0.00 0.00 0.00 75 1011.4
20220116063128 62 0.0 0.0 0.00 0.00 0.00 75 1011.3
20220116062628 62 0.0 0.0 0.00 0.00 0.00 75 1011.6
20220116062129 62 0.0 0.0 0.00 0.00 0.00 74 1011.5
20220116061630 62 0.0 0.0 0.00 0.00 0.00 74 1011.8
20220116061129 62 0.0 0.0 0.00 0.00 0.00 74 1011.9
20220116060629 62 0.0 0.0 0.00 0.00 0.00 74 1011.6
20220116060128 62 0.0 0.0 0.00 0.00 0.00 74 1011.5
20220116055629 62 0.0 0.0 0.00 0.00 0.00 74 1011.5
20220116055129 62 0.0 0.0 0.00 0.00 0.00 74 1011.5
20220116054629 62 0.0 0.0 0.00 0.00 0.00 74 1012.4
20220116054129 62 0.0 0.0 0.00 0.00 0.00 75 1012.6
20220116053629 62 0.0 0.0 0.00 0.00 0.00 75 1012.6
20220116053128 62 0.0 0.0 0.00 0.00 0.00 75 1012.8
20220116052629 62 0.0 0.0 0.00 0.00 0.00 75 1012.8
20220116052129 62 0.0 0.0 0.00 0.00 0.00 75 1012.8
20220116051628 62 0.0 0.0 0.00 0.00 0.00 75 1012.9
20220116051130 62 0.0 0.0 0.00 0.00 0.00 75 1013.0
20220116050626 61 0.0 0.0 0.00 0.00 0.00 75 1013.2
20220116050126 61 0.0 0.0 0.00 0.00 0.00 75 1013.2
20220116045625 61 0.0 0.0 0.00 0.00 0.00 75 1013.3
20220116045124 61 0.0 0.0 0.00 0.00 0.00 75 1013.3
20220116044622 61 0.0 0.0 0.00 0.00 0.00 74 1013.3
20220116044122 61 0.0 0.0 0.00 0.00 0.00 74 1013.4
20220116043622 61 0.0 0.0 0.00 0.00 0.00 74 1013.4
20220116043120 62 0.0 0.0 0.00 0.00 0.00 74 1013.6
20220116042620 62 0.0 0.0 0.00 0.00 0.00 74 1013.4
20220116042118 62 0.0 0.0 0.00 0.00 0.00 74 1013.5
20220116041618 62 0.0 0.0 0.00 0.00 0.00 73 1013.6
20220116041119 62 0.0 0.0 0.00 0.00 0.00 74 1013.7
20220116040618 62 0.0 0.0 0.00 0.00 0.00 74 1013.7
20220116040118 62 0.0 0.0 0.00 0.00 0.00 74 1013.8
20220116035618 62 0.0 0.0 0.00 0.00 0.00 74 1013.8
20220116035119 62 0.0 0.0 0.00 0.00 0.00 74 1013.9
20220116034617 62 0.0 0.0 0.00 0.00 0.00 73 1014.0
20220116034114 62 0.0 0.0 0.00 0.00 0.00 73 1014.0
20220116033614 62 0.0 0.0 0.00 0.00 0.00 73 1014.0
20220116033114 62 0.0 0.0 0.00 0.00 0.00 73 1014.0
20220116032614 62 0.0 0.0 0.00 0.00 0.00 73 1014.0
20220116032113 62 0.0 0.0 0.00 0.00 0.00 73 1013.9
20220116031614 62 0.0 0.0 0.00 0.00 0.00 73 1013.8
20220116031114 63 0.0 0.0 0.00 0.00 0.00 72 1013.8
20220116030614 63 0.0 0.0 0.00 0.00 0.00 72 1013.8
20220116030113 62 0.0 0.0 0.00 0.00 0.00 73 1013.8
20220116025612 62 0.0 0.0 0.00 0.00 0.00 73 1014.0
20220116025108 62 0.0 0.0 0.00 0.00 0.00 73 1013.8
20220116024608 62 0.0 0.0 0.00 0.00 0.00 73 1014.0
20220116024109 62 0.0 0.0 0.00 0.00 0.00 73 1013.9
20220116023608 62 0.0 0.0 0.00 0.00 0.00 73 1013.8
20220116023109 62 0.0 0.0 0.00 0.00 0.00 73 1014.1
20220116022608 62 0.0 0.0 0.00 0.00 0.00 73 1014.2
20220116022108 62 0.0 0.0 0.00 0.00 0.00 72 1014.2
20220116021608 62 0.0 0.0 0.00 0.00 0.00 72 1014.1
20220116021107 63 0.0 0.0 0.00 0.00 0.00 72 1014.1
20220116020608 63 0.0 0.0 0.00 0.00 0.00 71 1014.3
20220116020109 62 0.0 0.0 0.00 0.00 0.00 72 1014.4
20220116015609 62 0.0 0.0 0.00 0.00 0.00 72 1014.4
20220116015108 62 0.0 0.0 0.00 0.00 0.00 72 1014.5
20220116014608 62 0.0 0.0 0.00 0.00 0.00 73 1014.5
20220116014109 62 0.0 0.0 0.00 0.00 0.00 73 1014.6
20220116013608 62 0.0 0.0 0.00 0.00 0.00 73 1014.6
20220116013109 62 0.0 0.0 0.00 0.00 0.00 74 1014.6
20220116012607 62 0.0 0.0 0.00 0.00 0.00 74 1014.5
20220116012108 62 0.0 0.0 0.00 0.00 0.00 75 1014.6
20220116011608 61 0.0 0.0 0.00 0.00 0.00 75 1014.6
20220116011108 61 0.0 0.0 0.00 0.00 0.00 75 1014.6
20220116010609 61 0.0 0.0 0.00 0.00 0.00 74 1014.5
20220116010108 62 0.0 0.0 0.00 0.00 0.00 74 1014.7
20220116005608 62 0.0 0.0 0.00 0.00 0.00 74 1014.7
20220116005107 62 0.0 0.0 0.00 0.00 0.00 74 1014.5
20220116004608 62 0.0 0.0 0.00 0.00 0.00 73 1014.5
20220116004108 62 0.0 0.0 0.00 0.00 0.00 73 1014.5
20220116003608 62 0.0 0.0 0.00 0.00 0.00 73 1014.5
20220116003109 62 0.0 0.0 0.00 0.00 0.00 73 1014.4
20220116002608 62 0.0 0.0 0.00 0.00 0.00 73 1014.4
20220116002108 62 0.0 0.0 0.00 0.00 0.00 72 1014.5
20220116001608 62 0.0 0.0 0.00 0.00 0.00 72 1014.4
20220116001107 63 0.0 0.0 0.00 0.00 0.00 72 1014.4
20220116000605 63 0.0 0.0 0.00 0.00 0.00 72 1014.4
20220116000104 63 0.0 0.0 0.00 0.00 0.00 71 1014.4
20220115235605 63 0.0 0.0 0.00 0.00 0.00 70 1014.4
20220115235104 63 0.0 0.0 0.00 0.00 0.00 70 1014.4
20220115234605 63 0.0 0.0 0.00 0.00 0.00 69 1014.4
20220115234104 64 0.0 0.0 0.00 0.00 0.00 69 1014.2
20220115233604 64 0.0 0.0 0.00 0.00 0.00 68 1014.2
20220115233104 64 0.0 0.0 0.00 0.00 0.00 68 1014.3
20220115232603 64 0.0 0.0 0.00 0.00 0.00 68 1014.2
20220115232104 64 0.0 0.0 0.00 0.00 0.00 67 1014.2
20220115231604 64 0.0 0.0 0.00 0.00 0.00 67 1014.1
20220115231104 65 0.0 0.0 0.00 0.00 0.00 66 1014.1
20220115230604 65 0.0 0.0 0.00 0.00 0.00 66 1014.2
20220115230101 65 0.0 0.0 0.00 0.00 0.00 65 1014.2
20220115225601 65 0.0 0.0 0.00 0.00 0.00 65 1014.1
20220115225101 65 0.0 0.0 0.00 0.00 0.00 64 1014.2
20220115224602 66 0.0 0.0 0.00 0.00 0.00 63 1014.3
20220115224102 66 0.0 0.0 0.00 0.00 0.00 63 1014.3
20220115223601 66 0.0 0.0 0.00 0.00 0.00 62 1014.3
20220115223101 66 0.0 0.0 0.00 0.00 0.00 62 1014.4
20220115222601 67 0.0 0.0 0.00 0.00 0.00 61 1014.3
20220115222100 67 0.0 0.0 0.00 0.00 0.00 60 1014.2
20220115221600 67 0.0 0.0 0.00 0.00 0.00 60 1014.2
20220115221100 68 0.0 0.0 0.00 0.00 0.00 60 1014.2
20220115220600 68 0.0 0.0 0.00 0.00 0.00 59 1014.2
20220115220102 68 0.0 0.0 0.00 0.00 0.00 59 1014.2
20220115215602 68 0.0 0.0 0.00 0.00 0.00 59 1014.1
20220115215101 69 0.0 0.0 0.00 0.00 0.00 59 1014.1
20220115214602 69 0.0 0.0 0.00 0.00 0.00 57 1014.1
20220115214101 69 0.0 0.0 0.00 0.00 0.00 57 1014.2
20220115213601 69 0.0 0.0 0.00 0.00 0.00 57 1014.1
20220115213101 70 0.0 0.0 0.00 0.00 0.00 57 1014.1
20220115212601 70 0.0 0.0 0.00 0.00 0.00 56 1014.1
20220115212101 70 0.0 0.0 0.00 0.00 0.00 55 1014.1
20220115211601 71 0.0 0.0 0.00 0.00 0.00 55 1014.1
20220115211100 71 0.0 0.0 0.00 0.00 0.00 55 1014.1
20220115210601 72 0.0 0.0 0.00 0.00 0.00 52 1014.2
20220115210101 72 0.0 0.0 0.00 0.00 0.00 51 1014.2
20220115205602 72 0.0 0.0 0.00 0.00 0.00 52 1014.1
20220115205101 72 0.0 0.0 0.00 0.00 0.00 51 1014.1
20220115204601 72 0.0 0.0 0.00 0.00 0.00 52 1014.0
20220115204101 72 0.0 0.0 0.00 0.00 0.00 51 1014.0
20220115203601 73 0.0 0.0 0.00 0.00 0.00 51 1014.1
20220115203102 72 0.0 0.0 0.00 0.00 0.00 52 1014.1
20220115202601 72 0.0 0.0 0.00 0.00 0.00 51 1014.2
20220115202101 72 0.0 0.0 0.00 0.00 0.00 51 1014.2
20220115201600 72 0.0 0.0 0.00 0.00 0.00 52 1014.2
20220115201101 73 0.0 0.0 0.00 0.00 0.00 53 1014.3
20220115200602 72 0.0 0.0 0.00 0.00 0.00 53 1014.3
20220115200101 73 0.0 0.0 0.00 0.00 0.00 51 1014.5
20220115195602 72 0.0 0.0 0.00 0.00 0.00 52 1014.5
20220115195101 72 0.0 0.0 0.00 0.00 0.00 52 1014.5